createdAt,value
2022-08-16T00:00:20.208Z,7.00
2022-08-16T00:02:50.044Z,7.20
2022-08-16T00:05:20.451Z,6.50
2022-08-16T00:07:48.885Z,7.05
2022-08-16T00:10:26.036Z,7.03
2022-08-16T00:12:53.944Z,7.63
2022-08-16T00:15:51.455Z,7.10
2022-08-16T00:18:15.857Z,6.72
2022-08-16T00:20:46.261Z,7.28
2022-08-16T00:23:14.123Z,7.70
2022-08-16T00:26:35.154Z,7.72
2022-08-16T00:28:30.957Z,8.27
2022-08-16T00:30:59.246Z,7.07
2022-08-16T00:33:28.479Z,8.25
2022-08-16T00:35:57.811Z,7.72
2022-08-16T00:38:40.281Z,7.43
2022-08-16T00:41:11.340Z,7.85
2022-08-16T00:43:42.769Z,8.10
2022-08-16T00:46:36.405Z,8.18
2022-08-16T00:49:20.721Z,9.25
2022-08-16T00:51:54.930Z,8.05
2022-08-16T00:54:27.114Z,8.35
2022-08-16T00:56:58.342Z,8.30
2022-08-16T00:59:32.862Z,8.85
2022-08-16T01:02:31.688Z,8.55
2022-08-16T01:05:09.631Z,8.20
2022-08-16T01:07:50.900Z,8.30
2022-08-16T01:10:32.949Z,8.52
2022-08-16T01:13:08.020Z,8.60
2022-08-16T01:15:37.801Z,8.65
2022-08-16T01:18:39.277Z,9.40
2022-08-16T01:21:07.422Z,9.38
2022-08-16T01:24:03.863Z,9.45
2022-08-16T01:26:35.538Z,9.50
2022-08-16T01:29:09.791Z,10.55
2022-08-16T01:31:42.894Z,10.10
2022-08-16T01:34:24.949Z,10.27
2022-08-16T01:37:07.878Z,9.63
2022-08-16T01:39:37.176Z,9.45
2022-08-16T01:42:12.290Z,9.68
2022-08-16T01:44:41.050Z,10.77
2022-08-16T01:47:09.645Z,9.45
2022-08-16T01:49:43.645Z,9.23
2022-08-16T01:52:30.108Z,10.32
2022-08-16T01:55:25.637Z,8.82
2022-08-16T01:58:03.191Z,8.80
2022-08-16T02:00:30.251Z,9.40
2022-08-16T02:02:59.275Z,8.65
2022-08-16T02:05:30.743Z,8.75
2022-08-16T02:08:00.898Z,8.82
2022-08-16T02:10:28.932Z,9.55
2022-08-16T02:12:59.994Z,8.13
2022-08-16T02:15:35.390Z,8.63
2022-08-16T02:18:12.677Z,8.45
2022-08-16T02:20:42.737Z,8.52
2022-08-16T02:23:13.746Z,8.35
2022-08-16T02:25:51.859Z,8.52
2022-08-16T02:28:23.732Z,8.60
2022-08-16T02:30:52.852Z,9.05
2022-08-16T02:33:43.596Z,9.38
2022-08-16T02:36:48.254Z,8.07
2022-08-16T02:39:08.182Z,8.95
2022-08-16T02:41:39.527Z,8.77
2022-08-16T02:44:11.194Z,7.93
2022-08-16T02:46:50.590Z,8.43
2022-08-16T02:49:21.936Z,8.43
2022-08-16T02:51:59.256Z,8.02
2022-08-16T02:54:29.163Z,7.78
2022-08-16T02:56:56.519Z,7.28
2022-08-16T02:59:24.353Z,7.90
2022-08-16T03:01:51.643Z,7.88
2022-08-16T03:04:39.347Z,7.95
2022-08-16T03:07:12.048Z,7.57
2022-08-16T03:09:48.634Z,7.55
2022-08-16T03:12:21.538Z,7.53
2022-08-16T03:20:04.277Z,7.22
2022-08-16T03:22:36.491Z,7.03
2022-08-16T03:25:12.790Z,7.43
2022-08-16T03:27:50.989Z,7.55
2022-08-16T03:30:22.232Z,6.97
2022-08-16T03:32:53.208Z,6.65
2022-08-16T03:35:32.721Z,7.63
2022-08-16T03:38:32.935Z,7.65
2022-08-16T03:41:00.789Z,7.38
2022-08-16T03:43:50.612Z,7.30
2022-08-16T03:46:47.506Z,8.40
2022-08-16T03:49:12.479Z,6.75
2022-08-16T03:51:43.117Z,7.03
2022-08-16T03:54:15.388Z,7.53
2022-08-16T03:56:57.587Z,7.70
2022-08-16T03:59:30.122Z,7.13
2022-08-16T04:02:01.680Z,7.28
2022-08-16T04:04:33.492Z,6.78
2022-08-16T04:07:07.249Z,7.18
2022-08-16T04:09:38.513Z,7.15
2022-08-16T04:12:53.350Z,6.15
2022-08-16T04:15:00.723Z,7.07
2022-08-16T04:17:30.575Z,7.00
2022-08-16T04:19:58.133Z,7.47
2022-08-16T04:22:27.721Z,7.28
2022-08-16T04:24:59.747Z,7.28
2022-08-16T04:27:34.471Z,11.85
2022-08-16T04:30:07.157Z,8.77
2022-08-16T04:32:44.327Z,7.30
2022-08-16T04:35:20.397Z,7.28
2022-08-16T04:37:53.829Z,7.25
2022-08-16T04:40:27.566Z,7.30
2022-08-16T04:43:00.796Z,7.03
2022-08-16T04:45:35.923Z,6.32
2022-08-16T04:48:10.550Z,6.53
2022-08-16T04:51:11.527Z,8.30
2022-08-16T04:53:46.323Z,6.63
2022-08-16T04:56:16.548Z,6.97
2022-08-16T04:58:46.755Z,6.50
2022-08-16T05:01:18.136Z,6.97
2022-08-16T05:04:00.221Z,8.40
2022-08-16T05:06:45.360Z,6.93
2022-08-16T05:09:38.879Z,6.90
2022-08-16T05:12:12.715Z,7.20
2022-08-16T05:15:01.744Z,6.25
2022-08-16T05:17:34.082Z,7.30
2022-08-16T05:20:38.795Z,6.30
2022-08-16T05:22:57.397Z,6.55
2022-08-16T05:25:24.515Z,7.70
2022-08-16T05:28:10.850Z,6.30
2022-08-16T05:30:43.810Z,6.60
2022-08-16T05:33:18.298Z,5.78
2022-08-16T05:35:55.159Z,6.07
2022-08-16T05:38:40.867Z,5.72
2022-08-16T05:41:13.928Z,5.45
2022-08-16T05:43:46.978Z,5.10
2022-08-16T05:46:43.569Z,5.63
2022-08-16T05:49:22.514Z,5.53
2022-08-16T05:51:57.503Z,5.30
2022-08-16T05:54:26.118Z,5.20
2022-08-16T05:56:59.865Z,5.53
2022-08-16T05:59:28.040Z,5.95
2022-08-16T06:01:57.017Z,6.05
2022-08-16T06:04:36.443Z,6.20
2022-08-16T06:07:24.341Z,5.28
2022-08-16T06:10:31.946Z,5.50
2022-08-16T06:13:02.120Z,5.20
2022-08-16T06:15:30.670Z,5.78
2022-08-16T06:17:59.492Z,5.78
2022-08-16T06:20:35.243Z,5.10
2022-08-16T06:23:17.755Z,5.30
2022-08-16T06:25:56.308Z,5.38
2022-08-16T06:28:34.943Z,5.53
2022-08-16T06:31:06.749Z,5.45
2022-08-16T06:33:41.052Z,4.85
2022-08-16T06:36:09.879Z,5.32
2022-08-16T06:38:39.240Z,5.72
2022-08-16T06:41:39.424Z,5.55
2022-08-16T06:44:10.895Z,5.18
2022-08-16T06:46:55.035Z,5.07
2022-08-16T06:49:23.601Z,5.55
2022-08-16T06:51:50.678Z,5.35
2022-08-16T06:54:24.748Z,4.80
2022-08-16T06:56:55.207Z,5.55
2022-08-16T06:59:25.643Z,5.30
2022-08-16T07:01:58.476Z,5.10
2022-08-16T07:04:33.299Z,6.57
2022-08-16T07:07:14.432Z,5.28
2022-08-16T07:09:42.324Z,4.90
2022-08-16T07:12:09.805Z,4.80
2022-08-16T07:14:41.637Z,4.72
2022-08-16T07:17:12.657Z,4.72
2022-08-16T07:20:30.106Z,4.43
2022-08-16T07:22:52.645Z,4.55
2022-08-16T07:25:34.787Z,4.32
2022-08-16T07:28:12.018Z,4.20
2022-08-16T07:30:48.419Z,3.92
2022-08-16T07:33:52.629Z,3.70
2022-08-16T07:36:21.703Z,4.05
2022-08-16T07:38:50.499Z,4.38
2022-08-16T07:41:18.608Z,5.07
2022-08-16T07:43:50.933Z,4.32
2022-08-16T07:46:38.651Z,4.00
2022-08-16T07:49:19.718Z,3.85
2022-08-16T07:51:48.386Z,3.88
2022-08-16T07:54:21.394Z,4.00
2022-08-16T07:57:11.319Z,3.78
2022-08-16T07:59:46.208Z,4.18
2022-08-16T08:04:51.670Z,3.97
2022-08-16T08:07:20.687Z,4.10
2022-08-16T08:09:50.160Z,3.95
2022-08-16T08:12:32.303Z,4.13
2022-08-16T08:15:10.726Z,3.95
2022-08-16T08:17:42.580Z,3.70
2022-08-16T08:20:23.839Z,3.72
2022-08-16T08:23:00.696Z,4.28
2022-08-16T08:25:32.719Z,4.03
2022-08-16T08:28:18.772Z,4.78
2022-08-16T08:30:52.171Z,3.85
2022-08-16T08:33:31.674Z,4.72
2022-08-16T08:36:05.199Z,5.07
2022-08-16T08:38:45.858Z,5.00
2022-08-16T08:41:18.939Z,5.05
2022-08-16T08:43:52.088Z,4.68
2022-08-16T08:46:21.989Z,4.95
2022-08-16T08:48:59.743Z,6.97
2022-08-16T08:51:38.370Z,4.65
2022-08-16T08:54:14.313Z,4.28
2022-08-16T08:56:51.801Z,4.15
2022-08-16T08:59:28.230Z,5.40
2022-08-16T09:01:58.431Z,4.50
2022-08-16T09:04:33.237Z,4.75
2022-08-16T09:07:04.030Z,5.05
2022-08-16T09:09:34.184Z,4.85
2022-08-16T09:12:08.362Z,4.53
2022-08-16T09:15:01.962Z,5.38
2022-08-16T09:17:49.235Z,4.50
2022-08-16T09:20:20.297Z,4.32
2022-08-16T09:22:52.275Z,4.78
2022-08-16T09:25:26.024Z,4.05
2022-08-16T09:27:57.370Z,4.18
2022-08-16T09:30:34.498Z,4.35
2022-08-16T09:33:11.915Z,4.55
2022-08-16T09:35:39.497Z,4.30
2022-08-16T09:38:12.408Z,4.50
2022-08-16T09:40:59.135Z,4.40
2022-08-16T09:43:58.302Z,4.53
2022-08-16T09:46:44.663Z,4.40
2022-08-16T09:49:03.836Z,4.30
2022-08-16T09:51:37.425Z,3.92
2022-08-16T09:54:05.801Z,3.67
2022-08-16T09:56:35.717Z,4.32
2022-08-16T09:59:08.200Z,4.22
2022-08-16T10:01:38.626Z,4.20
2022-08-16T10:04:31.446Z,4.18
2022-08-16T10:09:44.897Z,4.22
2022-08-16T10:12:34.793Z,4.15
2022-08-16T10:15:17.028Z,4.13
2022-08-16T10:18:01.653Z,4.22
2022-08-16T10:20:34.870Z,4.50
2022-08-16T10:23:09.811Z,4.30
2022-08-16T10:27:00.758Z,4.25
2022-08-16T10:28:32.553Z,4.20
2022-08-16T10:31:11.918Z,4.88
2022-08-16T10:33:44.793Z,4.38
2022-08-16T10:36:38.150Z,4.90
2022-08-16T10:39:01.560Z,4.20
2022-08-16T10:41:29.184Z,4.40
2022-08-16T10:43:56.860Z,4.20
2022-08-16T10:46:39.261Z,4.25
2022-08-16T10:49:12.326Z,4.00
2022-08-16T10:52:02.717Z,3.97
2022-08-16T10:54:29.620Z,4.70
2022-08-16T10:57:04.135Z,4.50
2022-08-16T10:59:45.135Z,4.40
2022-08-16T11:02:58.615Z,3.97
2022-08-16T11:05:11.757Z,4.32
2022-08-16T11:07:45.554Z,4.22
2022-08-16T11:13:57.448Z,4.60
2022-08-16T11:19:06.140Z,4.47
2022-08-16T11:24:42.150Z,4.72
2022-08-16T11:27:23.398Z,4.63
2022-08-16T11:29:55.142Z,4.78
2022-08-16T11:32:31.260Z,4.45
2022-08-16T11:35:14.861Z,4.22
2022-08-16T11:38:47.213Z,4.65
2022-08-16T11:41:00.350Z,4.60
2022-08-16T11:43:33.489Z,4.35
2022-08-16T11:46:43.550Z,4.43
2022-08-16T11:48:51.850Z,4.85
2022-08-16T11:51:18.976Z,4.20
2022-08-16T11:53:46.373Z,4.00
2022-08-16T11:56:14.819Z,4.18
2022-08-16T11:58:42.209Z,4.00
2022-08-16T12:01:10.728Z,4.75
2022-08-16T12:03:38.310Z,4.07
2022-08-16T12:06:25.033Z,4.10
2022-08-16T12:09:01.088Z,4.20
2022-08-16T12:11:31.391Z,4.47
2022-08-16T12:14:01.341Z,4.00
2022-08-16T12:16:34.240Z,4.43
2022-08-16T12:19:10.465Z,3.97
2022-08-16T12:21:59.217Z,3.95
2022-08-16T12:24:26.178Z,4.13
2022-08-16T12:26:54.530Z,4.13
2022-08-16T12:29:22.698Z,4.57
2022-08-16T12:32:12.190Z,4.40
2022-08-16T12:34:50.792Z,4.30
2022-08-16T12:37:21.199Z,4.55
2022-08-16T12:39:56.138Z,4.18
2022-08-16T12:42:35.296Z,4.88
2022-08-16T12:45:09.968Z,4.90
2022-08-16T12:48:33.929Z,4.50
2022-08-16T12:51:13.447Z,4.60
2022-08-16T12:53:48.089Z,4.72
2022-08-16T12:56:18.884Z,5.13
2022-08-16T12:58:51.862Z,4.32
2022-08-16T13:01:27.003Z,4.60
2022-08-16T13:04:12.527Z,4.70
2022-08-16T13:06:44.416Z,5.15
2022-08-16T13:09:23.796Z,4.93
2022-08-16T13:12:09.727Z,4.88
2022-08-16T13:14:43.590Z,5.50
2022-08-16T13:17:19.210Z,5.05
2022-08-16T13:20:08.275Z,4.63
2022-08-16T13:22:42.966Z,4.70
2022-08-16T13:25:20.928Z,4.68
2022-08-16T13:28:02.117Z,4.60
2022-08-16T13:30:37.101Z,4.57
2022-08-16T13:33:13.350Z,4.70
2022-08-16T13:35:46.221Z,4.55
2022-08-16T13:38:28.198Z,4.47
2022-08-16T13:41:00.631Z,4.75
2022-08-16T13:43:29.007Z,5.20
2022-08-16T13:46:04.362Z,4.82
2022-08-16T13:48:42.598Z,4.72
2022-08-16T13:51:17.088Z,5.10
2022-08-16T13:53:59.852Z,5.05
2022-08-16T13:56:34.499Z,4.85
2022-08-16T13:59:14.422Z,5.00
2022-08-16T14:01:55.660Z,4.80
2022-08-16T14:04:29.318Z,5.28
2022-08-16T14:06:57.666Z,5.35
2022-08-16T14:09:27.016Z,5.28
2022-08-16T14:11:55.057Z,5.00
2022-08-16T14:14:28.908Z,7.85
2022-08-16T14:17:01.800Z,6.10
2022-08-16T14:19:30.238Z,6.07
2022-08-16T14:22:15.195Z,6.07
2022-08-16T14:24:49.673Z,5.20
2022-08-16T14:27:21.919Z,5.68
2022-08-16T14:29:51.097Z,5.43
2022-08-16T14:32:32.824Z,5.68
2022-08-16T14:35:08.166Z,5.47
2022-08-16T14:37:37.227Z,5.85
2022-08-16T14:40:07.194Z,5.80
2022-08-16T14:42:36.530Z,6.07
2022-08-16T14:45:09.605Z,5.88
2022-08-16T14:47:38.469Z,6.13
2022-08-16T14:50:09.288Z,6.18
2022-08-16T14:52:55.173Z,5.80
2022-08-16T14:55:26.241Z,5.93
2022-08-16T14:57:54.145Z,6.15
2022-08-16T15:00:33.139Z,5.75
2022-08-16T15:03:09.606Z,5.72
2022-08-16T15:05:39.304Z,6.47
2022-08-16T15:08:06.637Z,6.55
2022-08-16T15:10:34.979Z,6.82
2022-08-16T15:13:09.511Z,6.18
2022-08-16T15:15:37.876Z,7.60
2022-08-16T15:18:06.302Z,7.13
2022-08-16T15:20:41.492Z,6.43
2022-08-16T15:23:09.986Z,6.97
2022-08-16T15:25:42.581Z,6.93
2022-08-16T15:28:23.970Z,7.28
2022-08-16T15:31:01.038Z,6.63
2022-08-16T15:33:35.105Z,8.10
2022-08-16T15:36:03.642Z,9.15
2022-08-16T15:38:57.694Z,8.48
2022-08-16T15:41:42.459Z,8.70
2022-08-16T15:44:21.294Z,8.52
2022-08-16T15:46:55.470Z,8.43
2022-08-16T15:49:34.681Z,9.13
2022-08-16T15:52:11.992Z,8.55
2022-08-16T15:54:43.805Z,9.35
2022-08-16T15:57:24.499Z,8.90
2022-08-16T15:59:55.989Z,9.70
2022-08-16T16:02:38.991Z,10.20
2022-08-16T16:05:10.025Z,10.98
2022-08-16T16:07:39.443Z,10.90
2022-08-16T16:10:13.293Z,10.13
2022-08-16T16:12:51.308Z,10.80
2022-08-16T16:15:25.736Z,10.40
2022-08-16T16:17:53.808Z,10.40
2022-08-16T16:20:27.123Z,10.32
2022-08-16T16:23:02.946Z,9.73
2022-08-16T16:25:32.348Z,11.18
2022-08-16T16:28:01.450Z,10.45
2022-08-16T16:30:37.441Z,10.75
2022-08-16T16:33:21.343Z,10.55
2022-08-16T16:35:55.334Z,10.43
2022-08-16T16:38:28.987Z,11.82
2022-08-16T16:40:57.896Z,12.13
2022-08-16T16:43:31.150Z,10.65
2022-08-16T16:45:59.763Z,10.80
2022-08-16T16:48:34.427Z,12.23
2022-08-16T16:51:09.450Z,12.20
2022-08-16T16:53:41.448Z,11.63
2022-08-16T16:56:19.579Z,11.10
2022-08-16T16:58:57.106Z,12.27
2022-08-16T17:01:35.152Z,12.18
2022-08-16T17:04:27.407Z,13.32
2022-08-16T17:07:00.333Z,12.63
2022-08-16T17:09:27.487Z,13.02
2022-08-16T17:11:55.901Z,11.95
2022-08-16T17:14:32.792Z,12.30
2022-08-16T17:17:08.634Z,13.05
2022-08-16T17:19:41.274Z,11.82
2022-08-16T17:22:20.415Z,13.35
2022-08-16T17:24:50.291Z,12.48
2022-08-16T17:30:18.287Z,12.80
2022-08-16T17:32:54.529Z,13.02
2022-08-16T17:35:34.305Z,13.63
2022-08-16T17:38:06.001Z,13.23
2022-08-16T17:39:28.663Z,12.82
2022-08-16T17:40:50.361Z,13.73
2022-08-16T17:43:44.886Z,13.95
2022-08-16T17:46:50.399Z,13.50
2022-08-16T17:49:01.260Z,12.98
2022-08-16T17:51:28.697Z,13.73
2022-08-16T17:53:56.724Z,13.35
2022-08-16T17:56:23.685Z,14.13
2022-08-16T17:58:50.663Z,13.88
2022-08-16T18:04:50.859Z,12.90
2022-08-16T18:07:18.010Z,14.45
2022-08-16T18:09:45.047Z,13.70
2022-08-16T18:12:44.546Z,13.52
2022-08-16T18:15:09.416Z,14.85
2022-08-16T18:18:11.070Z,15.25
2022-08-16T18:20:56.510Z,15.57
2022-08-16T18:23:26.982Z,14.52
2022-08-16T18:25:59.714Z,14.48
2022-08-16T18:28:29.369Z,15.20
2022-08-16T18:31:00.811Z,15.65
2022-08-16T18:33:29.485Z,15.88
2022-08-16T18:35:58.113Z,15.00
2022-08-16T18:38:25.424Z,15.35
2022-08-16T18:40:53.251Z,15.18
2022-08-16T18:44:14.259Z,15.43
2022-08-16T18:46:10.025Z,15.52
2022-08-16T18:48:37.100Z,14.88
2022-08-16T18:51:11.543Z,15.73
2022-08-16T18:53:41.817Z,15.20
2022-08-16T18:56:09.164Z,14.75
2022-08-16T18:58:36.170Z,15.35
2022-08-16T19:01:03.670Z,15.15
2022-08-16T19:03:33.027Z,15.52
2022-08-16T19:06:11.303Z,15.38
2022-08-16T19:08:43.692Z,14.98
2022-08-16T19:11:15.594Z,15.65
2022-08-16T19:13:45.619Z,15.65
2022-08-16T19:16:13.967Z,15.93
2022-08-16T19:18:41.282Z,14.80
2022-08-16T19:21:14.458Z,15.23
2022-08-16T19:23:43.579Z,15.68
2022-08-16T19:26:24.781Z,15.50
2022-08-16T19:28:58.734Z,15.43
2022-08-16T19:31:33.575Z,14.80
2022-08-16T19:34:01.975Z,15.05
2022-08-16T19:36:36.769Z,14.57
2022-08-16T19:39:09.536Z,15.82
2022-08-16T19:41:40.137Z,15.52
2022-08-16T19:44:08.300Z,14.35
2022-08-16T19:46:36.012Z,15.25
2022-08-16T19:49:04.815Z,14.50
2022-08-16T19:51:31.864Z,14.57
2022-08-16T19:53:58.963Z,14.90
2022-08-16T19:56:26.882Z,14.15
2022-08-16T19:59:18.535Z,14.48
2022-08-16T20:01:43.625Z,13.88
2022-08-16T20:04:14.746Z,14.43
2022-08-16T20:06:42.776Z,14.55
2022-08-16T20:09:15.688Z,13.98
2022-08-16T20:11:47.631Z,14.55
2022-08-16T20:14:24.283Z,15.35
2022-08-16T20:16:55.316Z,14.50
2022-08-16T20:19:22.467Z,15.38
2022-08-16T20:21:49.889Z,13.10
2022-08-16T20:24:33.614Z,13.25
2022-08-16T20:27:02.341Z,14.35
2022-08-16T20:29:29.391Z,14.18
2022-08-16T20:31:56.722Z,14.13
2022-08-16T20:34:23.744Z,13.13
2022-08-16T20:36:50.786Z,14.02
2022-08-16T20:39:17.836Z,12.75
2022-08-16T20:41:44.773Z,12.70
2022-08-16T20:44:12.513Z,12.85
2022-08-16T20:46:39.771Z,12.25
2022-08-16T20:49:08.987Z,18.58
2022-08-16T20:51:47.079Z,15.00
2022-08-16T20:54:17.059Z,14.02
2022-08-16T20:56:44.023Z,12.57
2022-08-16T20:59:11.033Z,13.20
2022-08-16T21:01:46.958Z,12.45
2022-08-16T21:04:22.872Z,12.50
2022-08-16T21:06:53.463Z,11.65
2022-08-16T21:09:27.194Z,11.52
2022-08-16T21:12:50.475Z,12.13
2022-08-16T21:18:09.171Z,10.80
2022-08-16T21:21:01.982Z,11.80
2022-08-16T21:23:39.998Z,10.45
2022-08-16T21:26:40.970Z,10.10
2022-08-16T21:29:19.983Z,10.70
2022-08-16T21:31:57.137Z,11.07
2022-08-16T21:35:09.294Z,10.65
2022-08-16T21:38:05.780Z,10.90
2022-08-16T21:40:38.491Z,10.60
2022-08-16T21:43:32.994Z,10.38
2022-08-16T21:46:04.718Z,11.05
2022-08-16T21:48:35.987Z,10.25
2022-08-16T21:51:12.835Z,10.30
2022-08-16T21:59:35.796Z,9.98
2022-08-16T22:02:03.482Z,10.00
2022-08-16T22:04:38.910Z,10.57
2022-08-16T22:07:10.008Z,10.45
2022-08-16T22:09:53.300Z,10.05
2022-08-16T22:12:28.063Z,9.18
2022-08-16T22:14:59.379Z,9.98
2022-08-16T22:17:27.065Z,9.35
2022-08-16T22:19:54.097Z,9.80
2022-08-16T22:22:21.275Z,9.63
2022-08-16T22:24:48.803Z,8.85
2022-08-16T22:27:29.630Z,9.25
2022-08-16T22:29:58.478Z,9.75
2022-08-16T22:32:26.018Z,9.70
2022-08-16T22:34:54.442Z,9.45
2022-08-16T22:37:29.241Z,9.77
2022-08-16T22:39:56.621Z,9.10
2022-08-16T22:42:33.565Z,9.75
2022-08-16T22:45:05.778Z,9.77
2022-08-16T22:47:33.445Z,9.20
2022-08-16T22:50:04.209Z,8.95
2022-08-16T22:52:48.936Z,9.25
2022-08-16T22:58:00.002Z,8.20
2022-08-16T23:00:31.201Z,8.50
2022-08-16T23:03:00.599Z,8.93
2022-08-16T23:05:35.821Z,8.63
2022-08-16T23:08:04.602Z,9.05
2022-08-16T23:10:41.830Z,8.82
2022-08-16T23:13:10.017Z,8.80
2022-08-16T23:15:51.897Z,8.90
2022-08-16T23:18:27.097Z,8.90
2022-08-16T23:20:57.887Z,9.43
2022-08-16T23:23:29.606Z,9.00
2022-08-16T23:25:58.815Z,8.75
2022-08-16T23:28:29.768Z,8.98
2022-08-16T23:30:58.442Z,9.70
2022-08-16T23:33:28.142Z,10.60
2022-08-16T23:35:57.411Z,9.90
2022-08-16T23:38:39.042Z,9.70
2022-08-16T23:41:13.708Z,10.35
2022-08-16T23:43:43.519Z,9.80
2022-08-16T23:46:15.237Z,9.30
2022-08-16T23:49:59.137Z,9.68
2022-08-16T23:51:38.477Z,9.73
2022-08-16T23:54:08.445Z,10.20
2022-08-16T23:56:40.256Z,10.10
2022-08-16T23:59:07.855Z,9.80
